NOZ7JP LIRP-ENGM
Flight info
| Callsign | NOZ7JP |
|---|---|
| Flight time | N/A |
| Altitude | 18000 |
| Route | BEROK L153 OSBUL/N0440F340 DCT ABREG/N0445F360 DCT LOKTA/N0442F350 DCT TEDGO DCT HAREM DCT LOHRE DCT ELNAT/N0443F360 DCT TOLGI DCT KEGAB DCT DOSUR DCT AMSEV/N0439F370 DCT PIPEX M609 RIPAM |
| Aircraft | B738/M-SDE2E3FGHIRWXY/LB1 |
Departure
| Time | 2026-05-07 19:25 |
|---|---|
| Airport | Pisa International Airport (LIRP) |
Arrival
| Time | N/A |
|---|---|
| Airport | Oslo-Gardermoen International Airport (ENGM) |
| Time | Latitude | Longitude | Altitude | Speed | Heading |
|---|---|---|---|---|---|
| 2026-05-07 18:49 | 43.69745 | 10.40031 | 10 ft | 0 kts | 9° |
| 2026-05-07 19:14 | 43.69731 | 10.40028 | 10 ft | 4 kts | 8° |
| 2026-05-07 19:14 | 43.69705 | 10.40027 | 10 ft | 4 kts | 340° |
| 2026-05-07 19:14 | 43.69686 | 10.40042 | 12 ft | 4 kts | 308° |
| 2026-05-07 19:15 | 43.69683 | 10.40068 | 12 ft | 4 kts | 244° |
| 2026-05-07 19:15 | 43.69693 | 10.40094 | 13 ft | 4 kts | 244° |
| 2026-05-07 19:15 | 43.69701 | 10.40116 | 13 ft | 6 kts | 244° |
| 2026-05-07 19:15 | 43.69690 | 10.40087 | 10 ft | 3 kts | 244° |
| 2026-05-07 19:16 | 43.69689 | 10.40083 | 10 ft | 1 kts | 244° |
| 2026-05-07 19:18 | 43.69688 | 10.40082 | 10 ft | 1 kts | 244° |
| 2026-05-07 19:19 | 43.69683 | 10.40069 | 13 ft | 3 kts | 236° |
| 2026-05-07 19:19 | 43.69653 | 10.40054 | 10 ft | 7 kts | 183° |
| 2026-05-07 19:19 | 43.69582 | 10.40067 | 10 ft | 15 kts | 172° |
| 2026-05-07 19:19 | 43.69468 | 10.40089 | 10 ft | 17 kts | 172° |
| 2026-05-07 19:20 | 43.69355 | 10.40100 | 9 ft | 16 kts | 197° |
| 2026-05-07 19:20 | 43.69265 | 10.40012 | 9 ft | 16 kts | 217° |
| 2026-05-07 19:20 | 43.69164 | 10.39907 | 10 ft | 24 kts | 216° |
| 2026-05-07 19:20 | 43.69014 | 10.39751 | 7 ft | 28 kts | 217° |
| 2026-05-07 19:21 | 43.68864 | 10.39597 | 6 ft | 26 kts | 216° |
| 2026-05-07 19:21 | 43.68724 | 10.39451 | 7 ft | 24 kts | 218° |
| 2026-05-07 19:21 | 43.68592 | 10.39317 | 8 ft | 23 kts | 217° |
| 2026-05-07 19:21 | 43.68455 | 10.39173 | 7 ft | 27 kts | 217° |
| 2026-05-07 19:22 | 43.68298 | 10.39011 | 6 ft | 29 kts | 217° |
| 2026-05-07 19:22 | 43.68139 | 10.38846 | 6 ft | 27 kts | 217° |
| 2026-05-07 19:22 | 43.67983 | 10.38685 | 7 ft | 28 kts | 217° |
| 2026-05-07 19:22 | 43.67930 | 10.38630 | 8 ft | 26 kts | 217° |
| 2026-05-07 19:23 | 43.67786 | 10.38481 | 9 ft | 25 kts | 216° |
| 2026-05-07 19:23 | 43.67664 | 10.38357 | 8 ft | 14 kts | 212° |
| 2026-05-07 19:23 | 43.67601 | 10.38404 | 8 ft | 11 kts | 128° |
| 2026-05-07 19:23 | 43.67552 | 10.38491 | 8 ft | 13 kts | 128° |
| 2026-05-07 19:24 | 43.67579 | 10.38596 | 9 ft | 16 kts | 37° |
| 2026-05-07 19:24 | 43.67765 | 10.38789 | 8 ft | 67 kts | 37° |
| 2026-05-07 19:24 | 43.68331 | 10.39373 | 8 ft | 134 kts | 37° |
| 2026-05-07 19:24 | 43.69224 | 10.40302 | 116 ft | 178 kts | 38° |
| 2026-05-07 19:25 | 43.70163 | 10.41299 | 1054 ft | 163 kts | 36° |
| 2026-05-07 19:25 | 43.71057 | 10.42260 | 1839 ft | 164 kts | 37° |
| 2026-05-07 19:25 | 43.71948 | 10.43257 | 2539 ft | 165 kts | 35° |
| 2026-05-07 19:25 | 43.73026 | 10.43776 | 3159 ft | 167 kts | 0° |
| 2026-05-07 19:26 | 43.74146 | 10.43513 | 3875 ft | 163 kts | 336° |
| 2026-05-07 19:26 | 43.75173 | 10.42663 | 4268 ft | 187 kts | 324° |
| 2026-05-07 19:26 | 43.76303 | 10.41532 | 4551 ft | 213 kts | 323° |
| 2026-05-07 19:26 | 43.77544 | 10.40257 | 4753 ft | 237 kts | 323° |
| 2026-05-07 19:27 | 43.78921 | 10.38834 | 5223 ft | 248 kts | 323° |
| 2026-05-07 19:27 | 43.80298 | 10.37419 | 5969 ft | 250 kts | 325° |
| 2026-05-07 19:27 | 43.81921 | 10.36539 | 6711 ft | 259 kts | 351° |
| 2026-05-07 19:27 | 43.83780 | 10.36361 | 7187 ft | 275 kts | 357° |
| 2026-05-07 19:28 | 43.85721 | 10.36303 | 7908 ft | 281 kts | 358° |
| 2026-05-07 19:28 | 43.87685 | 10.36258 | 8730 ft | 284 kts | 358° |
| 2026-05-07 19:28 | 43.89675 | 10.36206 | 9548 ft | 288 kts | 358° |
| 2026-05-07 19:28 | 43.91688 | 10.36145 | 10299 ft | 292 kts | 358° |
| 2026-05-07 19:29 | 43.93798 | 10.36072 | 10565 ft | 316 kts | 358° |
| 2026-05-07 19:29 | 43.96076 | 10.35987 | 10762 ft | 338 kts | 358° |